Time;durP1;ratioP1;P1;durP2;ratioP2;P2;SDS_P1;SDS_P2;PMS_P1;PMS_P2;Temp;Humidity;BMP_temperature;BMP_pressure;BME280_temperature;BME280_humidity;BME280_pressure;Samples;Min_cycle;Max_cycle;Signal;HPM_P1;HPM_P2
2023/07/11 00:00:14;;;;;;;5.22;1.98;;;19.00;72.00;;;;;;5021830;28;20052;-82
2023/07/11 00:02:45;;;;;;;4.15;2.80;;;19.00;72.20;;;;;;5036900;28;20481;-83
2023/07/11 00:05:15;;;;;;;6.40;2.92;;;19.00;72.80;;;;;;5037249;28;20450;-82
2023/07/11 00:07:42;;;;;;;7.82;2.67;;;18.90;72.50;;;;;;5020613;28;20452;-83
2023/07/11 00:10:10;;;;;;;4.07;2.67;;;18.90;72.90;;;;;;5036712;28;20132;-82
2023/07/11 00:12:36;;;;;;;6.00;2.80;;;18.90;73.00;;;;;;5020818;28;20104;-82
2023/07/11 00:15:02;;;;;;;5.68;2.55;;;18.90;72.60;;;;;;5020258;28;20048;-83
2023/07/11 00:17:28;;;;;;;4.88;2.00;;;18.90;72.40;;;;;;5036909;28;20037;-82
2023/07/11 00:19:58;;;;;;;5.80;2.72;;;18.90;72.10;;;;;;5020121;28;20040;-82
2023/07/11 00:22:28;;;;;;;4.72;2.47;;;18.90;71.90;;;;;;5036572;28;20037;-83
2023/07/11 00:24:54;;;;;;;5.40;2.70;;;18.90;71.80;;;;;;5052022;28;20057;-83
2023/07/11 00:27:20;;;;;;;6.53;2.25;;;18.90;71.70;;;;;;5036647;28;20048;-83
2023/07/11 00:29:47;;;;;;;3.95;1.95;;;18.90;71.60;;;;;;5019831;28;20037;-81
2023/07/11 00:32:13;;;;;;;5.53;2.60;;;18.90;71.40;;;;;;5036554;28;20431;-82
2023/07/11 00:34:39;;;;;;;6.13;2.53;;;18.90;71.30;;;;;;5019887;28;20041;-82
2023/07/11 00:37:05;;;;;;;2.83;1.73;;;18.90;71.10;;;;;;5052822;28;20037;-82
2023/07/11 00:39:33;;;;;;;6.22;2.63;;;18.90;70.40;;;;;;5020011;28;20037;-82
2023/07/11 00:41:59;;;;;;;7.20;2.40;;;19.00;70.00;;;;;;5036350;28;20045;-83
2023/07/11 00:44:25;;;;;;;7.60;1.90;;;19.00;70.10;;;;;;5036123;28;20051;-83
2023/07/11 00:46:51;;;;;;;5.93;2.60;;;19.00;70.40;;;;;;5052721;28;20051;-83
2023/07/11 00:49:19;;;;;;;5.40;2.70;;;19.00;70.70;;;;;;5035917;28;20044;-83
2023/07/11 00:51:59;;;;;;;4.45;2.42;;;19.10;71.10;;;;;;5035864;28;20051;-83
2023/07/11 00:54:30;;;;;;;8.20;3.50;;;19.10;71.90;;;;;;5052480;28;20425;-82
2023/07/11 00:56:59;;;;;;;3.75;2.85;;;19.00;72.60;;;;;;5035903;28;20068;-82
2023/07/11 00:59:25;;;;;;;4.72;3.03;;;19.00;72.70;;;;;;5052453;28;20048;-82
2023/07/11 01:02:01;;;;;;;5.90;3.35;;;19.00;72.90;;;;;;5019401;28;20485;-82
2023/07/11 01:04:27;;;;;;;4.97;2.40;;;19.00;73.60;;;;;;5035777;28;20055;-83
2023/07/11 01:06:53;;;;;;;5.90;3.67;;;18.90;73.50;;;;;;5019244;28;20493;-82
2023/07/11 01:09:18;;;;;;;5.32;3.67;;;18.90;73.50;;;;;;5035856;28;20074;-82
2023/07/11 01:12:04;;;;;;;8.38;3.92;;;18.90;73.80;;;;;;5019338;28;20523;-83
2023/07/11 01:14:29;;;;;;;7.00;3.72;;;18.90;74.70;;;;;;5035838;28;20037;-82
2023/07/11 01:16:55;;;;;;;6.85;3.42;;;18.90;74.50;;;;;;5035699;28;20465;-83
2023/07/11 01:19:22;;;;;;;4.20;2.83;;;18.90;74.90;;;;;;5018866;28;20434;-82
2023/07/11 01:21:48;;;;;;;8.57;3.58;;;18.80;74.80;;;;;;5019208;28;20045;-83
2023/07/11 01:24:14;;;;;;;7.95;3.15;;;18.80;75.20;;;;;;5018912;28;20032;-83
2023/07/11 01:26:40;;;;;;;5.82;3.00;;;18.70;75.40;;;;;;5018976;28;20094;-83
2023/07/11 01:29:06;;;;;;;3.70;2.83;;;18.70;76.00;;;;;;5018907;28;20083;-83
2023/07/11 01:31:35;;;;;;;8.93;3.75;;;18.60;76.10;;;;;;5035366;28;20033;-82
2023/07/11 01:34:06;;;;;;;5.30;3.20;;;18.60;76.80;;;;;;5019238;28;20036;-82
2023/07/11 01:36:33;;;;;;;5.63;3.42;;;18.50;77.20;;;;;;5051783;28;20478;-83
2023/07/11 01:39:00;;;;;;;6.55;3.53;;;18.50;77.30;;;;;;5019129;28;20385;-83
2023/07/11 01:41:26;;;;;;;6.47;3.20;;;18.40;78.00;;;;;;5019000;28;20059;-83
2023/07/11 01:43:53;;;;;;;5.35;3.30;;;18.30;78.30;;;;;;5018749;28;20128;-83
2023/07/11 01:46:18;;;;;;;6.00;3.80;;;18.30;78.50;;;;;;5035377;28;20086;-82
2023/07/11 01:48:44;;;;;;;6.93;3.53;;;18.20;78.80;;;;;;5035244;28;20398;-82
2023/07/11 01:51:10;;;;;;;5.57;3.97;;;18.20;79.00;;;;;;5018556;28;20434;-83
2023/07/11 01:53:36;;;;;;;5.43;3.50;;;18.20;79.20;;;;;;5018650;28;20036;-82
2023/07/11 01:56:03;;;;;;;6.05;3.63;;;18.10;79.20;;;;;;5002453;28;20090;-82
2023/07/11 01:58:31;;;;;;;4.82;3.63;;;18.10;79.50;;;;;;5034851;28;20083;-83
2023/07/11 02:00:57;;;;;;;10.80;3.63;;;18.10;79.30;;;;;;5034928;28;20520;-83
2023/07/11 02:03:24;;;;;;;8.07;3.63;;;18.10;79.50;;;;;;5034960;28;20076;-82
2023/07/11 02:05:50;;;;;;;6.25;3.25;;;18.00;79.40;;;;;;5035155;28;20081;-83
2023/07/11 02:08:16;;;;;;;7.15;3.25;;;18.00;78.70;;;;;;5018885;28;20625;-82
2023/07/11 02:10:42;;;;;;;3.53;2.42;;;18.00;78.10;;;;;;5035073;28;20037;-82
2023/07/11 02:13:11;;;;;;;6.68;3.20;;;18.10;77.90;;;;;;5035327;28;20575;-83
2023/07/11 02:15:36;;;;;;;7.15;3.55;;;18.10;77.90;;;;;;5034821;28;20037;-82
2023/07/11 02:18:02;;;;;;;5.20;3.40;;;18.10;78.10;;;;;;5035015;28;20041;-83
2023/07/11 02:20:28;;;;;;;5.68;3.25;;;18.10;78.30;;;;;;5002245;28;20037;-82
2023/07/11 02:22:53;;;;;;;7.40;2.63;;;18.10;78.40;;;;;;5035265;28;20385;-83
2023/07/11 02:25:19;;;;;;;7.28;3.15;;;18.10;78.50;;;;;;5034578;28;20539;-82
2023/07/11 02:27:45;;;;;;;4.20;2.97;;;18.10;78.70;;;;;;5034724;28;20053;-82
2023/07/11 02:30:11;;;;;;;5.15;2.42;;;18.10;78.70;;;;;;5034978;28;20044;-83
2023/07/11 02:32:39;;;;;;;5.38;2.80;;;18.20;78.40;;;;;;5002311;28;20370;-83
2023/07/11 02:35:05;;;;;;;4.55;2.65;;;18.20;78.30;;;;;;5002584;28;20037;-83
2023/07/11 02:37:31;;;;;;;3.40;2.42;;;18.20;78.30;;;;;;5018236;28;20505;-82
2023/07/11 02:39:57;;;;;;;6.13;3.03;;;18.20;78.60;;;;;;5018247;28;20040;-83
2023/07/11 02:42:22;;;;;;;6.78;3.22;;;18.10;78.50;;;;;;5051370;28;20041;-82
2023/07/11 02:44:48;;;;;;;6.18;2.92;;;18.10;78.60;;;;;;5018199;28;20072;-83
2023/07/11 02:47:14;;;;;;;7.70;3.40;;;18.10;78.60;;;;;;5018215;28;20068;-83
2023/07/11 02:49:41;;;;;;;4.97;3.63;;;18.00;78.60;;;;;;5021874;28;20036;-83
2023/07/11 02:52:07;;;;;;;8.52;3.85;;;18.00;78.80;;;;;;5038288;28;20484;-82
2023/07/11 02:54:36;;;;;;;9.63;3.88;;;18.00;78.90;;;;;;5022208;28;20401;-83
2023/07/11 02:57:03;;;;;;;7.22;4.20;;;18.00;78.70;;;;;;5022002;28;20501;-81
2023/07/11 02:59:29;;;;;;;5.05;3.22;;;18.00;78.70;;;;;;5054612;28;20099;-83
2023/07/11 03:01:56;;;;;;;5.88;3.20;;;18.00;78.20;;;;;;5038390;28;20528;-83
2023/07/11 03:04:22;;;;;;;7.03;4.45;;;18.00;77.90;;;;;;5021607;28;20044;-83
2023/07/11 03:06:47;;;;;;;7.32;3.92;;;18.00;77.90;;;;;;5054753;28;20041;-82
2023/07/11 03:09:13;;;;;;;7.88;3.67;;;18.00;78.00;;;;;;5021685;28;20055;-83
2023/07/11 03:11:39;;;;;;;4.78;3.90;;;18.00;78.20;;;;;;5021369;28;20401;-82
2023/07/11 03:14:05;;;;;;;5.80;3.90;;;18.00;78.10;;;;;;5021641;28;20037;-82
2023/07/11 03:16:30;;;;;;;6.57;3.30;;;18.00;78.00;;;;;;5037784;28;20033;-82
2023/07/11 03:18:56;;;;;;;5.07;3.05;;;17.90;77.90;;;;;;5021517;28;20094;-83
2023/07/11 03:21:22;;;;;;;4.97;3.17;;;17.90;77.90;;;;;;5054208;28;20369;-82
2023/07/11 03:23:47;;;;;;;4.57;2.22;;;17.90;77.50;;;;;;5004287;28;20485;-83
2023/07/11 03:26:13;;;;;;;6.25;2.85;;;17.90;77.30;;;;;;5020381;28;20056;-82
2023/07/11 03:28:39;;;;;;;5.82;3.10;;;17.90;77.10;;;;;;5020809;28;20048;-82
2023/07/11 03:31:05;;;;;;;5.20;3.10;;;17.90;76.90;;;;;;5004009;28;20045;-83
2023/07/11 03:33:30;;;;;;;5.65;2.92;;;17.90;77.00;;;;;;5037162;28;20127;-83
2023/07/11 03:35:56;;;;;;;5.45;3.33;;;17.90;77.00;;;;;;5021233;28;20041;-83
2023/07/11 03:38:22;;;;;;;6.25;3.45;;;17.90;77.00;;;;;;5004596;28;20059;-83
2023/07/11 03:40:47;;;;;;;7.10;3.97;;;17.90;76.90;;;;;;5004579;28;20037;-83
2023/07/11 03:43:13;;;;;;;8.13;3.50;;;17.80;77.00;;;;;;5037306;28;20041;-82
2023/07/11 03:45:46;;;;;;;5.82;3.15;;;17.80;77.00;;;;;;5037200;28;20076;-83
2023/07/11 03:48:14;;;;;;;7.27;3.60;;;17.80;77.00;;;;;;5053768;28;20366;-82
2023/07/11 03:50:40;;;;;;;8.15;3.92;;;17.80;77.30;;;;;;5020603;28;20045;-82
2023/07/11 03:53:06;;;;;;;7.63;4.03;;;17.70;77.40;;;;;;5020993;28;20044;-83
2023/07/11 03:55:32;;;;;;;7.15;3.80;;;17.70;77.90;;;;;;5020814;28;20036;-82
2023/07/11 03:57:58;;;;;;;6.88;4.07;;;17.70;77.70;;;;;;5037228;28;20130;-83
2023/07/11 04:00:23;;;;;;;8.65;4.38;;;17.60;78.30;;;;;;5052507;28;20510;-82
2023/07/11 04:02:50;;;;;;;8.23;4.43;;;17.60;78.50;;;;;;5004571;28;20041;-83
2023/07/11 04:05:15;;;;;;;8.25;5.05;;;17.50;78.50;;;;;;5020396;28;20615;-82
2023/07/11 04:07:41;;;;;;;6.85;4.22;;;17.50;78.70;;;;;;5037091;28;20063;-83
2023/07/11 04:10:07;;;;;;;9.68;5.00;;;17.50;79.50;;;;;;5003948;28;20493;-82
2023/07/11 04:12:34;;;;;;;5.82;3.78;;;17.40;80.00;;;;;;5004334;28;20045;-83
2023/07/11 04:14:59;;;;;;;9.25;5.00;;;17.40;79.70;;;;;;5004413;28;20142;-83
2023/07/11 04:17:25;;;;;;;7.60;4.78;;;17.40;79.60;;;;;;5036717;28;20497;-82
2023/07/11 04:19:51;;;;;;;6.63;4.90;;;17.30;80.60;;;;;;5020029;28;20079;-83
2023/07/11 04:22:17;;;;;;;6.85;3.83;;;17.30;80.20;;;;;;5020420;28;20033;-83
2023/07/11 04:24:44;;;;;;;5.00;3.60;;;17.30;80.30;;;;;;5036562;28;20056;-83
2023/07/11 04:27:09;;;;;;;10.00;5.25;;;17.40;80.10;;;;;;5019999;28;20111;-83
2023/07/11 04:29:36;;;;;;;8.27;5.20;;;17.40;80.80;;;;;;5020105;28;20048;-83
2023/07/11 04:32:02;;;;;;;9.05;5.15;;;17.40;80.20;;;;;;5019944;28;20118;-83
2023/07/11 04:34:28;;;;;;;10.70;5.32;;;17.40;80.20;;;;;;5019875;28;20382;-83
2023/07/11 04:36:54;;;;;;;9.15;4.88;;;17.40;80.10;;;;;;5019895;28;20098;-84
2023/07/11 04:39:20;;;;;;;7.68;5.18;;;17.40;81.10;;;;;;5036149;28;20041;-83
2023/07/11 04:41:46;;;;;;;5.93;3.92;;;17.40;81.30;;;;;;5036495;28;20091;-83
2023/07/11 04:44:11;;;;;;;8.55;5.38;;;17.40;81.40;;;;;;5003396;28;20477;-83
2023/07/11 04:46:37;;;;;;;10.60;5.60;;;17.30;81.60;;;;;;5003543;28;20041;-83
2023/07/11 04:49:03;;;;;;;8.82;5.10;;;17.30;82.00;;;;;;5003226;28;20101;-83
2023/07/11 04:51:30;;;;;;;7.82;4.63;;;17.30;81.80;;;;;;5035906;28;20041;-83
2023/07/11 04:53:55;;;;;;;9.00;5.32;;;17.30;81.20;;;;;;5035977;28;20197;-84
2023/07/11 04:56:21;;;;;;;13.20;7.38;;;17.30;81.70;;;;;;5035849;28;20588;-83
2023/07/11 04:58:47;;;;;;;10.18;5.80;;;17.30;82.50;;;;;;5019298;28;20052;-83
2023/07/11 05:01:15;;;;;;;11.05;6.15;;;17.30;83.00;;;;;;5003061;28;20064;-83
2023/07/11 05:03:41;;;;;;;8.23;5.97;;;17.30;83.10;;;;;;5052316;28;20044;-84
2023/07/11 05:06:08;;;;;;;7.95;6.25;;;17.30;82.40;;;;;;5019388;28;20040;-83
2023/07/11 05:08:34;;;;;;;8.18;5.65;;;17.30;83.10;;;;;;5019072;28;20041;-83
2023/07/11 05:11:05;;;;;;;6.88;5.40;;;17.30;82.60;;;;;;5018782;28;20045;-83
2023/07/11 05:13:33;;;;;;;11.55;6.43;;;17.40;83.20;;;;;;5019920;28;20473;-83
2023/07/11 05:16:00;;;;;;;11.40;6.90;;;17.50;83.50;;;;;;5003302;28;20059;-84
2023/07/11 05:18:25;;;;;;;8.70;6.60;;;17.60;83.70;;;;;;5019326;28;20568;-84
2023/07/11 05:20:56;;;;;;;11.52;6.38;;;17.70;83.10;;;;;;5035511;28;20128;-84
2023/07/11 05:23:28;;;;;;;10.43;6.43;;;17.80;83.10;;;;;;5052255;28;20045;-85
2023/07/11 05:25:56;;;;;;;7.68;6.07;;;17.90;82.70;;;;;;5052100;28;20049;-84
2023/07/11 05:28:26;;;;;;;10.05;6.60;;;18.00;83.00;;;;;;5035685;28;20045;-83
2023/07/11 05:30:53;;;;;;;13.18;6.40;;;18.00;83.90;;;;;;5003339;28;20132;-85
2023/07/11 05:33:20;;;;;;;9.40;6.55;;;18.10;82.80;;;;;;5035558;28;20548;-83
2023/07/11 05:36:38;;;;;;;15.90;7.13;;;18.10;83.20;;;;;;5032592;28;20033;-83
2023/07/11 05:39:05;;;;;;;11.55;7.15;;;18.20;83.50;;;;;;5028899;28;20095;-84
2023/07/11 05:41:32;;;;;;;11.20;6.60;;;18.30;82.80;;;;;;5043749;28;20091;-82
2023/07/11 05:43:58;;;;;;;10.93;7.25;;;18.30;83.00;;;;;;4999436;28;20087;-84
2023/07/11 05:46:25;;;;;;;12.68;6.93;;;18.40;83.10;;;;;;5015459;28;20493;-83
2023/07/11 05:48:53;;;;;;;14.60;7.32;;;18.30;83.00;;;;;;5009172;28;20132;-85
2023/07/11 05:51:18;;;;;;;12.65;7.45;;;18.30;82.50;;;;;;5026426;28;20048;-83
2023/07/11 05:53:46;;;;;;;10.00;7.22;;;18.40;83.20;;;;;;5007125;28;20037;-85
2023/07/11 05:56:13;;;;;;;15.80;8.05;;;18.50;83.50;;;;;;5022743;28;20416;-82
2023/07/11 05:58:39;;;;;;;12.20;6.80;;;18.60;83.20;;;;;;5025033;28;20039;-83
2023/07/11 06:01:05;;;;;;;12.10;7.80;;;18.60;82.80;;;;;;5025498;28;20398;-83
2023/07/11 06:03:32;;;;;;;11.02;7.03;;;18.70;83.20;;;;;;5042176;28;20043;-85
2023/07/11 06:06:02;;;;;;;12.25;6.80;;;18.70;83.00;;;;;;5033637;28;20055;-84
2023/07/11 06:08:32;;;;;;;9.30;7.13;;;18.90;82.80;;;;;;5035341;28;20137;-85
2023/07/11 06:11:00;;;;;;;12.57;7.40;;;19.00;82.80;;;;;;5035185;28;20045;-85
2023/07/11 06:13:28;;;;;;;8.93;7.35;;;19.10;82.30;;;;;;5035024;28;20037;-86
2023/07/11 06:16:03;;;;;;;11.73;7.30;;;19.10;82.00;;;;;;5034889;28;20202;-84
2023/07/11 06:18:33;;;;;;;11.23;7.93;;;19.20;81.70;;;;;;5034802;28;20045;-85
2023/07/11 06:20:58;;;;;;;8.10;7.25;;;19.30;81.70;;;;;;5034834;28;20049;-83
2023/07/11 06:23:24;;;;;;;9.70;7.20;;;19.30;81.60;;;;;;5020262;28;20056;-84
2023/07/11 06:25:50;;;;;;;10.95;8.02;;;19.40;81.40;;;;;;5038641;28;20095;-83
2023/07/11 06:28:16;;;;;;;13.55;8.90;;;19.50;81.70;;;;;;5022352;28;20076;-83
2023/07/11 06:30:43;;;;;;;13.82;8.25;;;19.60;81.50;;;;;;5006247;28;20127;-85
2023/07/11 06:33:14;;;;;;;12.27;8.02;;;19.70;81.30;;;;;;5022398;28;20047;-84
2023/07/11 06:35:41;;;;;;;11.68;8.48;;;19.90;81.00;;;;;;5038845;28;20099;-84
2023/07/11 06:38:10;;;;;;;12.20;8.30;;;19.90;80.80;;;;;;5055396;28;20098;-83
2023/07/11 06:40:36;;;;;;;11.40;8.23;;;20.00;80.90;;;;;;5038488;28;20041;-83
2023/07/11 06:43:01;;;;;;;11.35;8.57;;;20.10;80.90;;;;;;5022140;28;20107;-84
2023/07/11 06:45:27;;;;;;;9.85;8.45;;;20.20;80.60;;;;;;5005955;28;20076;-83
2023/07/11 06:47:53;;;;;;;11.88;9.07;;;20.30;80.50;;;;;;5021938;28;20544;-84
2023/07/11 06:50:18;;;;;;;11.13;8.20;;;20.50;80.10;;;;;;5021844;28;20045;-85
2023/07/11 06:52:45;;;;;;;14.40;8.77;;;20.60;79.40;;;;;;5021911;28;20076;-83
2023/07/11 06:55:12;;;;;;;10.45;8.43;;;20.70;79.10;;;;;;5022019;28;20048;-84
2023/07/11 06:57:38;;;;;;;12.02;8.05;;;20.80;78.50;;;;;;5038633;28;20083;-84
2023/07/11 07:00:06;;;;;;;16.83;7.78;;;20.90;77.90;;;;;;5054751;28;20474;-85
2023/07/11 07:02:32;;;;;;;13.90;7.80;;;20.90;77.70;;;;;;5022157;28;20064;-83
2023/07/11 07:04:58;;;;;;;11.25;8.38;;;20.90;76.90;;;;;;5005810;28;20045;-84
2023/07/11 07:07:24;;;;;;;12.90;8.05;;;21.00;76.80;;;;;;5038928;28;20615;-83
2023/07/11 07:09:50;;;;;;;11.30;7.90;;;21.00;76.70;;;;;;5021511;28;20044;-85
2023/07/11 07:12:16;;;;;;;10.07;7.80;;;21.10;76.90;;;;;;5021656;28;20131;-85
2023/07/11 07:14:42;;;;;;;11.15;7.65;;;21.30;76.90;;;;;;5038054;28;20043;-85
2023/07/11 07:17:08;;;;;;;10.65;8.10;;;21.30;76.90;;;;;;5037881;28;20033;-83
2023/07/11 07:19:33;;;;;;;11.13;8.57;;;21.40;76.80;;;;;;5037791;28;20080;-83
2023/07/11 07:21:59;;;;;;;13.52;7.95;;;21.40;76.80;;;;;;5005171;28;20136;-84
2023/07/11 07:24:25;;;;;;;15.20;8.90;;;21.50;76.80;;;;;;5005140;28;20045;-84
2023/07/11 07:26:56;;;;;;;8.85;7.95;;;21.50;76.30;;;;;;5021211;28;20057;-84
2023/07/11 07:29:24;;;;;;;13.45;8.15;;;21.50;76.30;;;;;;5022072;28;20531;-84
2023/07/11 07:31:50;;;;;;;13.77;8.10;;;21.50;76.40;;;;;;5038938;28;20083;-83
2023/07/11 07:34:15;;;;;;;10.10;8.35;;;21.50;76.20;;;;;;5038717;28;20033;-84
2023/07/11 07:36:41;;;;;;;13.43;7.45;;;21.50;75.90;;;;;;5039015;28;20481;-85
2023/07/11 07:39:07;;;;;;;10.55;6.95;;;21.50;75.40;;;;;;5021630;28;20132;-84
2023/07/11 07:41:32;;;;;;;12.73;7.18;;;21.50;75.40;;;;;;5021842;28;20049;-84
2023/07/11 07:43:58;;;;;;;9.88;6.72;;;21.60;75.30;;;;;;5021512;28;20044;-83
2023/07/11 07:46:24;;;;;;;13.10;7.65;;;21.60;74.60;;;;;;5005602;28;20045;-84
2023/07/11 07:48:53;;;;;;;10.32;6.88;;;21.70;74.70;;;;;;5022043;28;20056;-85
2023/07/11 07:51:19;;;;;;;9.00;6.75;;;21.70;73.70;;;;;;5038023;28;20048;-85
2023/07/11 07:53:45;;;;;;;14.23;7.18;;;21.90;75.10;;;;;;5054658;28;20033;-83
2023/07/11 07:56:15;;;;;;;11.95;7.28;;;22.00;74.10;;;;;;5021196;28;20094;-83
2023/07/11 07:58:41;;;;;;;11.07;6.32;;;22.20;74.00;;;;;;5038166;28;20101;-83
2023/07/11 08:01:07;;;;;;;9.98;6.85;;;22.40;73.10;;;;;;5037628;28;20045;-83
2023/07/11 08:03:36;;;;;;;7.38;5.10;;;22.60;71.80;;;;;;5019538;28;20129;-81
2023/07/11 08:06:02;;;;;;;8.57;5.28;;;22.60;70.00;;;;;;5015778;28;20045;-81
2023/07/11 08:08:27;;;;;;;12.40;5.43;;;22.70;70.80;;;;;;5038843;28;20044;-81
2023/07/11 08:10:53;;;;;;;9.57;5.10;;;22.80;70.60;;;;;;5037522;28;20534;-82
2023/07/11 08:13:19;;;;;;;11.00;5.88;;;22.80;69.50;;;;;;5021781;28;21193;-82
2023/07/11 08:15:44;;;;;;;8.75;5.28;;;22.90;69.50;;;;;;5021009;28;20508;-80
2023/07/11 08:18:11;;;;;;;8.35;4.97;;;23.00;67.50;;;;;;5026882;28;20045;-83
2023/07/11 08:20:37;;;;;;;12.82;5.20;;;23.20;66.40;;;;;;5021619;28;20481;-81
2023/07/11 08:23:03;;;;;;;7.45;5.53;;;23.20;67.40;;;;;;5021809;28;20079;-82
2023/07/11 08:25:29;;;;;;;8.02;5.40;;;23.20;67.50;;;;;;5039784;28;20136;-82
2023/07/11 08:27:55;;;;;;;9.00;4.30;;;23.20;67.50;;;;;;5026497;28;20096;-81
2023/07/11 08:30:21;;;;;;;8.10;4.88;;;23.40;67.80;;;;;;5007172;28;20073;-79
2023/07/11 08:32:47;;;;;;;7.78;5.72;;;23.50;67.20;;;;;;5038769;28;20042;-79
2023/07/11 08:35:13;;;;;;;6.70;4.88;;;23.60;66.60;;;;;;5023080;28;20041;-78
2023/07/11 08:37:38;;;;;;;8.40;5.20;;;23.80;67.00;;;;;;5039754;28;20129;-79
2023/07/11 08:40:05;;;;;;;8.10;4.63;;;23.90;65.40;;;;;;5023656;28;20060;-79
2023/07/11 08:42:40;;;;;;;10.23;4.50;;;24.00;65.50;;;;;;5020311;28;20052;-80
2023/07/11 08:45:33;;;;;;;9.52;4.50;;;23.90;65.00;;;;;;5029073;28;20393;-80
2023/07/11 08:48:13;;;;;;;7.05;4.20;;;24.10;64.80;;;;;;5039796;28;20153;-79
2023/07/11 08:50:51;;;;;;;8.07;4.70;;;24.10;64.20;;;;;;5025725;28;20084;-80
2023/07/11 08:53:20;;;;;;;6.88;4.00;;;24.20;64.90;;;;;;5024289;28;20087;-81
2023/07/11 08:55:52;;;;;;;9.07;4.05;;;24.40;63.10;;;;;;5022738;28;20128;-80
2023/07/11 08:58:21;;;;;;;9.32;4.05;;;24.50;63.50;;;;;;5021197;28;20051;-80
2023/07/11 09:00:50;;;;;;;8.75;4.22;;;24.70;62.40;;;;;;5024868;28;20036;-79
2023/07/11 09:03:30;;;;;;;6.85;2.97;;;24.90;62.50;;;;;;5022564;28;20095;-80
2023/07/11 09:06:12;;;;;;;9.73;3.67;;;24.90;60.80;;;;;;5017464;28;20045;-80
2023/07/11 09:08:42;;;;;;;8.70;4.05;;;24.90;60.10;;;;;;5037987;28;20045;-81
2023/07/11 09:11:27;;;;;;;9.52;3.85;;;24.90;59.10;;;;;;5037481;28;20044;-78
2023/07/11 09:14:34;;;;;;;7.90;4.30;;;24.90;59.90;;;;;;5039845;28;20053;-78
2023/07/11 09:17:17;;;;;;;6.57;3.97;;;24.90;60.60;;;;;;5039777;28;20049;-78
2023/07/11 09:19:42;;;;;;;11.02;4.00;;;25.00;60.40;;;;;;5038498;28;20045;-79
2023/07/11 09:22:42;;;;;;;6.53;3.80;;;25.10;60.00;;;;;;5022293;28;20048;-79
2023/07/11 09:25:19;;;;;;;5.78;3.22;;;25.30;59.70;;;;;;5022675;28;20567;-80
2023/07/11 09:27:54;;;;;;;8.68;3.78;;;25.40;59.60;;;;;;5036919;28;20133;-80
2023/07/11 09:30:31;;;;;;;9.27;3.30;;;25.40;58.10;;;;;;5019507;28;20045;-81
2023/07/11 09:33:14;;;;;;;9.70;3.92;;;25.60;58.20;;;;;;5041045;28;20052;-79
2023/07/11 09:35:43;;;;;;;8.27;3.43;;;25.80;57.50;;;;;;5037557;28;20497;-81
2023/07/11 09:38:32;;;;;;;7.85;3.55;;;25.90;57.40;;;;;;5040018;28;20041;-80
2023/07/11 09:41:09;;;;;;;8.18;3.60;;;25.90;56.60;;;;;;5019344;28;20052;-79
2023/07/11 09:43:35;;;;;;;9.77;4.28;;;26.10;56.40;;;;;;5038501;28;20037;-80
2023/07/11 09:46:01;;;;;;;8.57;4.53;;;26.10;57.00;;;;;;5025976;28;20500;-80
2023/07/11 09:48:34;;;;;;;9.80;4.22;;;26.00;56.50;;;;;;5023216;28;20056;-81
2023/07/11 09:50:59;;;;;;;8.70;4.20;;;26.20;56.50;;;;;;5041259;28;20811;-81
2023/07/11 09:53:31;;;;;;;8.85;4.82;;;26.20;56.60;;;;;;5025995;28;20049;-80
2023/07/11 09:56:02;;;;;;;9.05;4.60;;;26.20;56.50;;;;;;5007004;28;20736;-80
2023/07/11 09:58:32;;;;;;;8.98;4.90;;;26.30;56.90;;;;;;5041875;28;20048;-81
2023/07/11 10:01:01;;;;;;;7.05;4.90;;;26.40;56.80;;;;;;5022375;28;20060;-81
2023/07/11 10:03:29;;;;;;;9.63;4.82;;;26.40;55.90;;;;;;5020603;28;20141;-81
2023/07/11 10:05:56;;;;;;;7.97;4.70;;;26.50;56.10;;;;;;5024093;28;20045;-79
2023/07/11 10:08:29;;;;;;;7.50;5.32;;;26.40;56.50;;;;;;5005666;28;20099;-80
2023/07/11 10:11:01;;;;;;;10.97;5.73;;;26.00;57.10;;;;;;5036454;28;20064;-79
2023/07/11 10:13:27;;;;;;;10.18;5.30;;;26.20;57.70;;;;;;5016764;28;20749;-81
2023/07/11 10:15:55;;;;;;;10.23;5.95;;;25.90;58.10;;;;;;5016001;28;20042;-81
2023/07/11 10:18:27;;;;;;;8.82;4.80;;;25.80;58.40;;;;;;5015487;28;20073;-81
2023/07/11 10:20:59;;;;;;;7.95;5.10;;;25.90;58.60;;;;;;5031836;28;20041;-80
2023/07/11 10:23:26;;;;;;;10.10;5.50;;;26.00;57.60;;;;;;5032159;28;20627;-81
2023/07/11 10:26:02;;;;;;;7.53;4.28;;;25.90;57.40;;;;;;5015189;28;20144;-80
2023/07/11 10:28:38;;;;;;;7.82;4.75;;;25.90;58.80;;;;;;5015408;28;20047;-80
2023/07/11 10:31:37;;;;;;;12.38;5.45;;;25.90;58.90;;;;;;5015329;28;20053;-81
2023/07/11 10:34:14;;;;;;;8.93;5.35;;;25.80;59.70;;;;;;5031747;28;20037;-80
2023/07/11 10:36:56;;;;;;;10.43;4.93;;;25.90;59.80;;;;;;5031655;28;20056;-81
2023/07/11 10:39:32;;;;;;;7.15;5.13;;;26.20;58.90;;;;;;5031990;28;20131;-81
2023/07/11 10:42:04;;;;;;;9.63;5.07;;;26.40;58.00;;;;;;5031767;28;20037;-82
2023/07/11 10:44:38;;;;;;;12.23;5.75;;;26.60;57.30;;;;;;5031663;28;20494;-80
2023/07/11 10:47:04;;;;;;;11.45;4.85;;;26.50;57.30;;;;;;5015303;28;20060;-81
2023/07/11 10:49:45;;;;;;;8.32;4.95;;;26.60;58.10;;;;;;5015073;28;20135;-80
2023/07/11 10:52:32;;;;;;;7.65;5.05;;;26.80;58.60;;;;;;5031657;28;20132;-83
2023/07/11 10:55:07;;;;;;;8.80;4.32;;;26.80;58.00;;;;;;5015279;28;20053;-80
2023/07/11 10:57:41;;;;;;;6.97;4.15;;;26.80;55.60;;;;;;5031807;28;20392;-81
2023/07/11 11:00:16;;;;;;;8.07;4.00;;;26.80;55.20;;;;;;5031726;28;20104;-80
2023/07/11 11:03:03;;;;;;;7.68;3.88;;;26.90;55.50;;;;;;5031917;28;20191;-81
2023/07/11 11:05:49;;;;;;;8.10;4.55;;;26.90;56.20;;;;;;5031320;28;20041;-81
2023/07/11 11:08:47;;;;;;;9.70;4.85;;;26.60;57.60;;;;;;5031342;28;20041;-79
2023/07/11 11:11:35;;;;;;;7.22;4.10;;;26.60;57.70;;;;;;5034800;28;20394;-82
2023/07/11 11:14:15;;;;;;;9.25;4.53;;;26.50;59.10;;;;;;5034664;28;20041;-81
2023/07/11 11:16:41;;;;;;;7.40;4.45;;;26.40;58.70;;;;;;5018035;28;20042;-82
2023/07/11 11:19:23;;;;;;;8.73;4.30;;;26.40;58.40;;;;;;5034467;28;20042;-81
2023/07/11 11:22:01;;;;;;;10.25;4.75;;;26.30;59.00;;;;;;5034489;28;20489;-81
2023/07/11 11:24:54;;;;;;;9.25;4.68;;;26.20;58.30;;;;;;5017719;28;20528;-81
2023/07/11 11:27:42;;;;;;;11.48;4.60;;;26.30;58.20;;;;;;5017856;28;20107;-81
2023/07/11 11:30:33;;;;;;;9.75;4.63;;;26.00;58.60;;;;;;5017807;28;20045;-82
2023/07/11 11:33:47;;;;;;;6.68;3.67;;;26.20;58.90;;;;;;5018100;28;20118;-81
2023/07/11 11:36:18;;;;;;;6.38;3.40;;;26.40;59.40;;;;;;5013188;28;20041;-82
2023/07/11 11:39:10;;;;;;;8.10;3.95;;;26.40;57.60;;;;;;5034259;28;20079;-81
2023/07/11 11:41:46;;;;;;;10.18;4.13;;;26.40;57.00;;;;;;5015227;28;20088;-81
2023/07/11 11:44:21;;;;;;;7.93;3.95;;;26.50;55.50;;;;;;5017848;28;20060;-82
2023/07/11 11:46:49;;;;;;;6.53;3.53;;;26.60;55.60;;;;;;5017408;28;20045;-83
2023/07/11 11:49:16;;;;;;;5.60;3.25;;;26.40;55.70;;;;;;5001338;28;20389;-82
2023/07/11 11:51:44;;;;;;;8.48;3.95;;;26.60;55.90;;;;;;5017470;28;20041;-81
2023/07/11 11:54:10;;;;;;;9.65;3.60;;;27.00;55.00;;;;;;5000916;28;20485;-83
2023/07/11 11:56:42;;;;;;;15.45;2.85;;;27.10;54.30;;;;;;5017201;28;20048;-82
2023/07/11 11:59:16;;;;;;;9.85;3.20;;;27.10;54.40;;;;;;5017367;28;20481;-84
2023/07/11 12:01:53;;;;;;;7.22;2.90;;;27.40;55.40;;;;;;5020933;28;20044;-83
2023/07/11 12:04:34;;;;;;;7.18;3.53;;;27.50;54.80;;;;;;5045089;28;20417;-84
2023/07/11 12:07:10;;;;;;;8.90;3.42;;;27.60;55.10;;;;;;5030204;28;20509;-83
2023/07/11 12:09:46;;;;;;;5.22;2.30;;;27.50;53.50;;;;;;5037142;28;20079;-83
2023/07/11 12:12:14;;;;;;;7.07;3.05;;;27.40;54.50;;;;;;5053544;28;20051;-80
2023/07/11 12:14:44;;;;;;;5.95;2.10;;;27.30;54.00;;;;;;5050624;28;20033;-77
2023/07/11 12:17:33;;;;;;;10.30;2.53;;;27.20;54.20;;;;;;5053341;28;20041;-80
2023/07/11 12:20:08;;;;;;;4.65;2.42;;;27.20;53.60;;;;;;5030995;28;20049;-82
2023/07/11 12:22:37;;;;;;;4.88;2.20;;;27.10;52.20;;;;;;5036395;28;20044;-83
2023/07/11 12:25:05;;;;;;;3.45;1.90;;;27.10;52.20;;;;;;5036391;28;20040;-81
2023/07/11 12:27:31;;;;;;;3.35;1.75;;;27.20;51.90;;;;;;5053114;28;20586;-82
2023/07/11 12:29:59;;;;;;;6.75;1.80;;;27.00;52.40;;;;;;5053283;28;20040;-82
2023/07/11 12:32:31;;;;;;;4.40;2.03;;;27.00;53.30;;;;;;5036429;28;20045;-82
2023/07/11 12:35:09;;;;;;;4.50;1.75;;;26.90;54.40;;;;;;5035527;28;20075;-82
2023/07/11 12:37:41;;;;;;;2.53;1.33;;;26.90;54.90;;;;;;5050522;28;20040;-81
2023/07/11 12:40:17;;;;;;;2.78;1.20;;;26.80;55.80;;;;;;5069506;28;20095;-82
2023/07/11 12:42:56;;;;;;;2.92;1.15;;;26.80;57.00;;;;;;5053260;28;20150;-82
2023/07/11 12:45:31;;;;;;;4.82;1.48;;;26.90;58.20;;;;;;5036234;28;20044;-81
2023/07/11 12:48:17;;;;;;;3.65;1.52;;;27.20;57.90;;;;;;5036242;28;20068;-81
2023/07/11 12:50:49;;;;;;;4.20;1.33;;;27.20;57.20;;;;;;5053150;28;20060;-82
2023/07/11 12:53:16;;;;;;;3.20;1.58;;;27.10;58.10;;;;;;5051455;28;20045;-81
2023/07/11 12:55:43;;;;;;;9.52;2.17;;;27.00;58.50;;;;;;5036360;28;20036;-82